»·PEaware :: N910TX MHLM-MROC

N910TX :: MHLM-MROC

FLIGHT INFORMATION

Flight Status: Arrived
Operator: Privately registered:
United States
More flights under this callsign
Pilot: Anonymous 14085 (14085)
Aircraft: SOCATA TBM-900
(TBM9)
More flights by this aircraft type
Origin: MHLM La Mesa Intl
Honduras
Destination: MROC Juan Santamaria Intl
Costa Rica
More flights between these airports :: More routes between these airports
Route: LMS TNT LIBIS MGA LIB PARZA TIO
File this flight plan on PilotEdge
Remarks: RMK / SIMBRIEF
Altitude:
(Current/Filed)
29,000ft
Speed:
(Current/Filed)
323kts
Departed: 05-Aug-20 07:06 AM
Arrived: 05-Aug-20 08:35 AM
Distance/Time
Traveled:
393nm/1:29
Distance/Time
To Go:
Arrived

Flight Plot

Page will automatically refresh every two minutes.

Flight plan parsing failed; only flown route is shown


Map Options




Map Legend


Flown Route
Filed Route
Departure Airport
Arrival Airport
Navaid (VOR, NDB)
Fix

Horizontal Profiles

Position Reports

Time Latitude Longitude Heading Altitude Ground
Speed
05-Aug-20 06:56 15.448815 -87.929604 72 93ft 0kts
05-Aug-20 06:56 15.448815 -87.929604 72 93ft 0kts
05-Aug-20 06:58 15.448815 -87.929604 72 93ft 0kts
05-Aug-20 06:58 15.448815 -87.929604 72 93ft 0kts
05-Aug-20 07:00 15.448815 -87.929604 72 93ft 0kts
05-Aug-20 07:00 15.448815 -87.929604 72 93ft 0kts
05-Aug-20 07:01 15.448306 -87.929025 197 93ft 5kts
05-Aug-20 07:02 15.446699 -87.930364 220 93ft 8kts
05-Aug-20 07:03 15.443973 -87.932745 220 93ft 16kts
05-Aug-20 07:04 15.442640 -87.932288 39 93ft 7kts
05-Aug-20 07:05 15.460935 -87.916652 39 1054ft 118kts
05-Aug-20 07:06 15.446965 -87.892501 177 3012ft 145kts
05-Aug-20 07:07 15.409284 -87.879718 154 5171ft 146kts
05-Aug-20 07:08 15.371608 -87.861990 152 7424ft 153kts
05-Aug-20 07:09 15.332653 -87.843506 150 9547ft 159kts
05-Aug-20 07:10 15.291443 -87.823959 149 11786ft 168kts
05-Aug-20 07:11 15.247565 -87.803122 149 13842ft 185kts
05-Aug-20 07:12 15.199355 -87.780286 149 15743ft 195kts
05-Aug-20 07:13 15.149244 -87.756553 149 17501ft 202kts
05-Aug-20 07:14 15.097479 -87.732050 149 19088ft 208kts
05-Aug-20 07:15 15.043930 -87.706720 149 20763ft 216kts
05-Aug-20 07:16 14.988823 -87.680660 149 22523ft 222kts
05-Aug-20 07:17 14.931707 -87.653671 150 24204ft 229kts
05-Aug-20 07:18 14.872915 -87.625906 150 25814ft 236kts
05-Aug-20 07:19 14.812458 -87.597375 150 27350ft 244kts
05-Aug-20 07:20 14.749925 -87.567883 150 28955ft 250kts
05-Aug-20 07:21 14.682038 -87.535847 151 29108ft 287kts
05-Aug-20 07:22 14.606820 -87.500418 151 29095ft 305kts
05-Aug-20 07:23 14.528771 -87.463690 151 29088ft 308kts
05-Aug-20 07:24 14.451583 -87.427393 151 29087ft 303kts
05-Aug-20 07:25 14.375110 -87.391456 151 29093ft 301kts
05-Aug-20 07:26 14.299138 -87.355781 151 29125ft 299kts
05-Aug-20 07:27 14.223389 -87.320238 151 29157ft 299kts
05-Aug-20 07:28 14.147327 -87.284572 151 29158ft 300kts
05-Aug-20 07:29 14.071063 -87.248839 151 29158ft 301kts
05-Aug-20 07:30 13.997334 -87.209962 139 29164ft 296kts
05-Aug-20 07:31 13.929406 -87.161185 141 29158ft 298kts
05-Aug-20 07:32 13.861070 -87.113052 141 29154ft 297kts
05-Aug-20 07:33 13.792815 -87.065032 141 29154ft 297kts
05-Aug-20 07:34 13.724682 -87.017134 141 29154ft 297kts
05-Aug-20 07:35 13.656575 -86.969288 141 29154ft 296kts
05-Aug-20 07:36 13.588486 -86.921489 141 29154ft 296kts
05-Aug-20 07:37 13.520443 -86.873756 141 29154ft 296kts
05-Aug-20 07:38 13.452222 -86.825931 141 29154ft 296kts
05-Aug-20 07:39 13.384209 -86.778285 141 29154ft 296kts
05-Aug-20 07:40 13.316241 -86.730704 141 29155ft 296kts
05-Aug-20 07:41 13.247905 -86.682898 141 29131ft 297kts
05-Aug-20 07:42 13.179336 -86.634962 141 29034ft 299kts
05-Aug-20 07:43 13.110640 -86.586969 141 28940ft 299kts
05-Aug-20 07:44 13.041929 -86.538966 142 28938ft 300kts
05-Aug-20 07:45 12.972650 -86.490628 143 28940ft 302kts
05-Aug-20 07:46 12.902724 -86.441904 143 28942ft 305kts
05-Aug-20 07:47 12.832482 -86.392976 143 28937ft 305kts
05-Aug-20 07:48 12.762324 -86.344131 143 28938ft 305kts
05-Aug-20 07:49 12.692093 -86.295269 143 28938ft 305kts
05-Aug-20 07:50 12.621760 -86.246370 143 28938ft 305kts
05-Aug-20 07:51 12.551575 -86.197608 143 28939ft 306kts
05-Aug-20 07:52 12.481056 -86.148647 143 28939ft 306kts
05-Aug-20 07:53 12.410862 -86.099944 143 28939ft 306kts
05-Aug-20 07:54 12.340487 -86.051147 143 28939ft 306kts
05-Aug-20 07:55 12.269965 -86.002282 143 28940ft 306kts
05-Aug-20 07:56 12.199615 -85.953565 143 28940ft 307kts
05-Aug-20 07:57 12.128157 -85.904114 143 28942ft 314kts
05-Aug-20 07:58 12.055563 -85.853909 143 28941ft 316kts
05-Aug-20 07:59 11.982477 -85.803400 143 28941ft 317kts
05-Aug-20 08:00 11.909312 -85.752869 143 28941ft 317kts
05-Aug-20 08:01 11.836275 -85.702463 143 28937ft 317kts
05-Aug-20 08:02 11.762994 -85.651920 143 28937ft 317kts
05-Aug-20 08:03 11.690001 -85.601609 143 28938ft 317kts
05-Aug-20 08:04 11.616932 -85.551278 143 28942ft 317kts
05-Aug-20 08:05 11.552755 -85.507097 143 28950ft 317kts
05-Aug-20 08:06 11.471332 -85.451080 143 28961ft 317kts
05-Aug-20 08:07 11.398030 -85.400685 143 28962ft 315kts
05-Aug-20 08:08 11.325413 -85.350791 143 28962ft 314kts
05-Aug-20 08:09 11.252616 -85.300804 143 28774ft 318kts
05-Aug-20 08:10 11.178884 -85.250204 143 28293ft 320kts
05-Aug-20 08:11 11.104681 -85.199307 143 27431ft 331kts
05-Aug-20 08:12 11.026988 -85.146051 143 25867ft 338kts
05-Aug-20 08:13 10.949588 -85.093042 143 24506ft 329kts
05-Aug-20 08:14 10.875316 -85.042213 144 23569ft 321kts
05-Aug-20 08:15 10.800686 -84.991164 144 22220ft 323kts
05-Aug-20 08:16 10.726964 -84.940765 144 20826ft 317kts
05-Aug-20 08:17 10.654229 -84.891069 144 19446ft 313kts
05-Aug-20 08:18 10.582279 -84.841938 144 18076ft 310kts
05-Aug-20 08:19 10.511209 -84.793439 144 16724ft 303kts
05-Aug-20 08:20 10.442001 -84.746234 144 15420ft 297kts
05-Aug-20 08:21 10.373907 -84.699813 144 14128ft 294kts
05-Aug-20 08:22 10.306136 -84.653637 144 12835ft 292kts
05-Aug-20 08:23 10.239342 -84.608152 144 11567ft 283kts
05-Aug-20 08:24 10.174494 -84.564014 145 10344ft 278kts
05-Aug-20 08:25 10.111020 -84.520830 145 9139ft 271kts
05-Aug-20 08:26 10.048906 -84.478591 146 7966ft 266kts
05-Aug-20 08:27 9.987924 -84.437148 146 6813ft 256kts
05-Aug-20 08:28 9.935459 -84.401339 142 5977ft 198kts
05-Aug-20 08:29 9.939707 -84.353651 72 5176ft 162kts
05-Aug-20 08:30 9.953361 -84.317082 74 4746ft 106kts
05-Aug-20 08:31 9.963888 -84.289391 71 4555ft 107kts
05-Aug-20 08:32 9.975083 -84.260088 73 3863ft 114kts
05-Aug-20 08:33 9.986059 -84.230078 72 3185ft 109kts
05-Aug-20 08:34 9.992949 -84.211741 41 3023ft 15kts
05-Aug-20 08:35 9.994238 -84.212016 338 3023ft 2kts
05-Aug-20 08:36 9.994687 -84.212072 143 3023ft 0kts
05-Aug-20 08:37 9.994687 -84.212072 143 3023ft 0kts

Navigation Log

Ident Type
Flight plan parsing failed, navigation log unavailable